sensor_id;sensor_type;location;lat;lon;timestamp;P1;durP1;ratioP1;P2;durP2;ratioP2
58685;SDS011;44465;53.206;-6.106;2023-03-21T00:00:56;25.80;;;4.65;;
58685;SDS011;44465;53.206;-6.106;2023-03-21T00:03:23;18.85;;;3.58;;
58685;SDS011;44465;53.206;-6.106;2023-03-21T00:05:49;23.75;;;4.35;;
58685;SDS011;44465;53.206;-6.106;2023-03-21T00:08:24;30.27;;;3.90;;
58685;SDS011;44465;53.206;-6.106;2023-03-21T00:10:57;25.23;;;4.07;;
58685;SDS011;44465;53.206;-6.106;2023-03-21T00:13:27;32.05;;;5.53;;
58685;SDS011;44465;53.206;-6.106;2023-03-21T00:15:57;12.13;;;3.78;;
58685;SDS011;44465;53.206;-6.106;2023-03-21T00:18:28;22.33;;;3.08;;
58685;SDS011;44465;53.206;-6.106;2023-03-21T00:21:01;22.52;;;3.55;;
58685;SDS011;44465;53.206;-6.106;2023-03-21T00:23:32;19.95;;;3.03;;
58685;SDS011;44465;53.206;-6.106;2023-03-21T00:26:02;20.67;;;3.40;;
58685;SDS011;44465;53.206;-6.106;2023-03-21T00:28:32;13.20;;;2.63;;
58685;SDS011;44465;53.206;-6.106;2023-03-21T00:30:58;24.38;;;3.50;;
58685;SDS011;44465;53.206;-6.106;2023-03-21T00:33:25;15.20;;;2.58;;
58685;SDS011;44465;53.206;-6.106;2023-03-21T00:35:53;15.30;;;2.90;;
58685;SDS011;44465;53.206;-6.106;2023-03-21T00:38:22;16.55;;;2.35;;
58685;SDS011;44465;53.206;-6.106;2023-03-21T00:40:48;13.77;;;2.20;;
58685;SDS011;44465;53.206;-6.106;2023-03-21T00:43:15;16.92;;;2.92;;
58685;SDS011;44465;53.206;-6.106;2023-03-21T00:45:48;18.85;;;3.80;;
58685;SDS011;44465;53.206;-6.106;2023-03-21T00:48:16;13.88;;;2.83;;
58685;SDS011;44465;53.206;-6.106;2023-03-21T00:50:49;13.73;;;2.80;;
58685;SDS011;44465;53.206;-6.106;2023-03-21T00:53:17;13.38;;;2.47;;
58685;SDS011;44465;53.206;-6.106;2023-03-21T00:55:44;11.35;;;2.60;;
58685;SDS011;44465;53.206;-6.106;2023-03-21T00:58:21;16.25;;;2.17;;
58685;SDS011;44465;53.206;-6.106;2023-03-21T01:00:48;9.55;;;2.50;;
58685;SDS011;44465;53.206;-6.106;2023-03-21T01:03:15;7.70;;;2.30;;
58685;SDS011;44465;53.206;-6.106;2023-03-21T01:05:44;8.25;;;1.60;;
58685;SDS011;44465;53.206;-6.106;2023-03-21T01:08:30;6.00;;;1.80;;
58685;SDS011;44465;53.206;-6.106;2023-03-21T01:11:03;9.40;;;2.15;;
58685;SDS011;44465;53.206;-6.106;2023-03-21T01:13:31;7.85;;;1.40;;
58685;SDS011;44465;53.206;-6.106;2023-03-21T01:15:57;7.90;;;1.63;;
58685;SDS011;44465;53.206;-6.106;2023-03-21T01:18:25;7.82;;;2.00;;
58685;SDS011;44465;53.206;-6.106;2023-03-21T01:20:53;6.80;;;1.77;;
58685;SDS011;44465;53.206;-6.106;2023-03-21T01:23:20;8.70;;;1.77;;
58685;SDS011;44465;53.206;-6.106;2023-03-21T01:25:48;6.13;;;1.95;;
58685;SDS011;44465;53.206;-6.106;2023-03-21T01:28:18;7.80;;;1.88;;
58685;SDS011;44465;53.206;-6.106;2023-03-21T01:30:47;5.97;;;1.60;;
58685;SDS011;44465;53.206;-6.106;2023-03-21T01:33:14;5.63;;;1.33;;
58685;SDS011;44465;53.206;-6.106;2023-03-21T01:35:41;6.10;;;1.52;;
58685;SDS011;44465;53.206;-6.106;2023-03-21T01:38:10;5.90;;;1.33;;
58685;SDS011;44465;53.206;-6.106;2023-03-21T01:40:38;3.95;;;1.13;;
58685;SDS011;44465;53.206;-6.106;2023-03-21T01:43:25;4.22;;;1.75;;
58685;SDS011;44465;53.206;-6.106;2023-03-21T01:46:20;3.83;;;1.27;;
58685;SDS011;44465;53.206;-6.106;2023-03-21T01:49:24;7.20;;;1.63;;
58685;SDS011;44465;53.206;-6.106;2023-03-21T01:52:23;6.03;;;1.80;;
58685;SDS011;44465;53.206;-6.106;2023-03-21T01:54:52;6.85;;;1.30;;
58685;SDS011;44465;53.206;-6.106;2023-03-21T01:57:21;4.60;;;1.23;;
58685;SDS011;44465;53.206;-6.106;2023-03-21T02:00:00;3.28;;;0.95;;
58685;SDS011;44465;53.206;-6.106;2023-03-21T02:03:02;5.25;;;1.65;;
58685;SDS011;44465;53.206;-6.106;2023-03-21T02:05:58;6.25;;;1.38;;
58685;SDS011;44465;53.206;-6.106;2023-03-21T02:08:30;4.80;;;1.23;;
58685;SDS011;44465;53.206;-6.106;2023-03-21T02:10:58;3.63;;;1.33;;
58685;SDS011;44465;53.206;-6.106;2023-03-21T02:13:35;3.45;;;1.10;;
58685;SDS011;44465;53.206;-6.106;2023-03-21T02:16:06;4.88;;;1.30;;
58685;SDS011;44465;53.206;-6.106;2023-03-21T02:18:46;7.93;;;1.55;;
58685;SDS011;44465;53.206;-6.106;2023-03-21T02:27:36;4.20;;;1.10;;
58685;SDS011;44465;53.206;-6.106;2023-03-21T02:41:33;6.70;;;1.20;;
58685;SDS011;44465;53.206;-6.106;2023-03-21T02:44:05;2.22;;;0.80;;
58685;SDS011;44465;53.206;-6.106;2023-03-21T02:46:44;3.53;;;1.05;;
58685;SDS011;44465;53.206;-6.106;2023-03-21T02:49:39;1.73;;;1.08;;
58685;SDS011;44465;53.206;-6.106;2023-03-21T02:52:08;1.92;;;1.00;;
58685;SDS011;44465;53.206;-6.106;2023-03-21T02:54:38;1.92;;;0.80;;
58685;SDS011;44465;53.206;-6.106;2023-03-21T02:57:08;3.08;;;0.93;;
58685;SDS011;44465;53.206;-6.106;2023-03-21T02:59:34;2.45;;;1.00;;
58685;SDS011;44465;53.206;-6.106;2023-03-21T03:02:02;1.90;;;0.70;;
58685;SDS011;44465;53.206;-6.106;2023-03-21T03:04:29;3.28;;;1.10;;
58685;SDS011;44465;53.206;-6.106;2023-03-21T03:12:06;2.28;;;0.90;;
58685;SDS011;44465;53.206;-6.106;2023-03-21T03:14:41;1.95;;;0.80;;
58685;SDS011;44465;53.206;-6.106;2023-03-21T03:25:48;2.47;;;0.80;;
58685;SDS011;44465;53.206;-6.106;2023-03-21T03:28:19;5.88;;;0.98;;
58685;SDS011;44465;53.206;-6.106;2023-03-21T03:30:54;5.78;;;1.08;;
58685;SDS011;44465;53.206;-6.106;2023-03-21T03:33:26;2.13;;;1.00;;
58685;SDS011;44465;53.206;-6.106;2023-03-21T03:38:20;3.05;;;0.98;;
58685;SDS011;44465;53.206;-6.106;2023-03-21T03:40:54;3.00;;;0.95;;
58685;SDS011;44465;53.206;-6.106;2023-03-21T03:43:51;2.10;;;1.13;;
58685;SDS011;44465;53.206;-6.106;2023-03-21T03:46:27;1.55;;;0.80;;
58685;SDS011;44465;53.206;-6.106;2023-03-21T03:48:55;1.45;;;0.80;;
58685;SDS011;44465;53.206;-6.106;2023-03-21T03:51:27;1.55;;;0.85;;
58685;SDS011;44465;53.206;-6.106;2023-03-21T03:54:18;3.60;;;1.40;;
58685;SDS011;44465;53.206;-6.106;2023-03-21T03:56:51;3.58;;;1.10;;
58685;SDS011;44465;53.206;-6.106;2023-03-21T03:59:20;3.70;;;1.20;;
58685;SDS011;44465;53.206;-6.106;2023-03-21T04:02:10;4.13;;;1.25;;
58685;SDS011;44465;53.206;-6.106;2023-03-21T04:04:40;3.67;;;1.25;;
58685;SDS011;44465;53.206;-6.106;2023-03-21T04:07:06;3.13;;;0.98;;
58685;SDS011;44465;53.206;-6.106;2023-03-21T04:09:34;3.47;;;1.00;;
58685;SDS011;44465;53.206;-6.106;2023-03-21T04:12:01;1.38;;;0.93;;
58685;SDS011;44465;53.206;-6.106;2023-03-21T04:14:28;2.33;;;0.90;;
58685;SDS011;44465;53.206;-6.106;2023-03-21T04:16:53;1.58;;;0.80;;
58685;SDS011;44465;53.206;-6.106;2023-03-21T04:19:24;1.17;;;0.68;;
58685;SDS011;44465;53.206;-6.106;2023-03-21T04:21:49;3.05;;;0.80;;
58685;SDS011;44465;53.206;-6.106;2023-03-21T04:24:16;2.55;;;0.93;;
58685;SDS011;44465;53.206;-6.106;2023-03-21T04:26:42;1.90;;;0.77;;
58685;SDS011;44465;53.206;-6.106;2023-03-21T04:29:31;2.70;;;1.20;;
58685;SDS011;44465;53.206;-6.106;2023-03-21T04:32:15;3.95;;;1.05;;
58685;SDS011;44465;53.206;-6.106;2023-03-21T04:34:45;2.13;;;0.90;;
58685;SDS011;44465;53.206;-6.106;2023-03-21T04:37:20;1.90;;;0.82;;
58685;SDS011;44465;53.206;-6.106;2023-03-21T04:39:49;3.22;;;1.35;;
58685;SDS011;44465;53.206;-6.106;2023-03-21T04:42:15;3.47;;;1.10;;
58685;SDS011;44465;53.206;-6.106;2023-03-21T04:44:45;3.28;;;1.38;;
58685;SDS011;44465;53.206;-6.106;2023-03-21T04:47:12;1.98;;;0.80;;
58685;SDS011;44465;53.206;-6.106;2023-03-21T04:49:43;4.00;;;1.00;;
58685;SDS011;44465;53.206;-6.106;2023-03-21T04:52:10;1.95;;;0.98;;
58685;SDS011;44465;53.206;-6.106;2023-03-21T04:54:40;1.05;;;0.70;;
58685;SDS011;44465;53.206;-6.106;2023-03-21T04:57:06;2.20;;;0.90;;
58685;SDS011;44465;53.206;-6.106;2023-03-21T04:59:32;2.38;;;0.90;;
58685;SDS011;44465;53.206;-6.106;2023-03-21T05:01:58;3.15;;;0.90;;
58685;SDS011;44465;53.206;-6.106;2023-03-21T05:04:24;3.08;;;1.10;;
58685;SDS011;44465;53.206;-6.106;2023-03-21T05:06:51;2.67;;;0.90;;
58685;SDS011;44465;53.206;-6.106;2023-03-21T05:09:17;2.35;;;0.90;;
58685;SDS011;44465;53.206;-6.106;2023-03-21T05:11:42;1.13;;;0.60;;
58685;SDS011;44465;53.206;-6.106;2023-03-21T05:14:13;1.73;;;1.20;;
58685;SDS011;44465;53.206;-6.106;2023-03-21T05:16:41;1.88;;;0.95;;
58685;SDS011;44465;53.206;-6.106;2023-03-21T05:19:09;2.50;;;1.02;;
58685;SDS011;44465;53.206;-6.106;2023-03-21T05:21:38;1.45;;;0.80;;
58685;SDS011;44465;53.206;-6.106;2023-03-21T05:24:28;2.47;;;1.15;;
58685;SDS011;44465;53.206;-6.106;2023-03-21T05:26:54;1.88;;;0.70;;
58685;SDS011;44465;53.206;-6.106;2023-03-21T05:29:23;2.15;;;1.05;;
58685;SDS011;44465;53.206;-6.106;2023-03-21T05:31:59;1.80;;;0.82;;
58685;SDS011;44465;53.206;-6.106;2023-03-21T05:34:25;1.90;;;0.70;;
58685;SDS011;44465;53.206;-6.106;2023-03-21T05:36:52;3.00;;;0.90;;
58685;SDS011;44465;53.206;-6.106;2023-03-21T05:39:20;2.03;;;0.90;;
58685;SDS011;44465;53.206;-6.106;2023-03-21T05:41:57;1.15;;;0.77;;
58685;SDS011;44465;53.206;-6.106;2023-03-21T05:44:27;2.03;;;1.08;;
58685;SDS011;44465;53.206;-6.106;2023-03-21T05:46:52;2.22;;;0.93;;
58685;SDS011;44465;53.206;-6.106;2023-03-21T05:49:23;2.67;;;1.10;;
58685;SDS011;44465;53.206;-6.106;2023-03-21T05:51:53;1.73;;;0.68;;
58685;SDS011;44465;53.206;-6.106;2023-03-21T05:54:19;3.88;;;1.10;;
58685;SDS011;44465;53.206;-6.106;2023-03-21T05:56:46;1.08;;;0.80;;
58685;SDS011;44465;53.206;-6.106;2023-03-21T05:59:20;1.70;;;0.70;;
58685;SDS011;44465;53.206;-6.106;2023-03-21T06:01:49;3.63;;;0.85;;
58685;SDS011;44465;53.206;-6.106;2023-03-21T06:04:15;3.05;;;1.10;;
58685;SDS011;44465;53.206;-6.106;2023-03-21T06:06:40;1.17;;;0.98;;
58685;SDS011;44465;53.206;-6.106;2023-03-21T06:09:07;1.45;;;0.90;;
58685;SDS011;44465;53.206;-6.106;2023-03-21T06:11:36;1.73;;;0.73;;
58685;SDS011;44465;53.206;-6.106;2023-03-21T06:14:11;1.55;;;0.70;;
58685;SDS011;44465;53.206;-6.106;2023-03-21T06:16:37;1.88;;;0.80;;
58685;SDS011;44465;53.206;-6.106;2023-03-21T06:19:03;2.83;;;0.90;;
58685;SDS011;44465;53.206;-6.106;2023-03-21T06:21:38;2.13;;;0.63;;
58685;SDS011;44465;53.206;-6.106;2023-03-21T06:24:05;2.40;;;0.83;;
58685;SDS011;44465;53.206;-6.106;2023-03-21T06:26:31;2.67;;;0.70;;
58685;SDS011;44465;53.206;-6.106;2023-03-21T06:28:59;1.65;;;0.57;;
58685;SDS011;44465;53.206;-6.106;2023-03-21T06:31:26;0.77;;;0.70;;
58685;SDS011;44465;53.206;-6.106;2023-03-21T06:33:58;2.60;;;0.90;;
58685;SDS011;44465;53.206;-6.106;2023-03-21T06:36:23;2.67;;;0.60;;
58685;SDS011;44465;53.206;-6.106;2023-03-21T06:38:49;0.82;;;0.63;;
58685;SDS011;44465;53.206;-6.106;2023-03-21T06:41:15;0.60;;;0.50;;
58685;SDS011;44465;53.206;-6.106;2023-03-21T06:43:48;1.13;;;0.73;;
58685;SDS011;44465;53.206;-6.106;2023-03-21T06:46:14;0.90;;;0.63;;
58685;SDS011;44465;53.206;-6.106;2023-03-21T06:48:40;0.88;;;0.55;;
58685;SDS011;44465;53.206;-6.106;2023-03-21T06:51:10;1.15;;;0.60;;
58685;SDS011;44465;53.206;-6.106;2023-03-21T06:53:40;1.30;;;0.70;;
58685;SDS011;44465;53.206;-6.106;2023-03-21T06:56:17;3.15;;;0.65;;
58685;SDS011;44465;53.206;-6.106;2023-03-21T06:58:44;5.20;;;0.82;;
58685;SDS011;44465;53.206;-6.106;2023-03-21T07:01:20;1.70;;;0.73;;
58685;SDS011;44465;53.206;-6.106;2023-03-21T07:03:59;3.05;;;0.70;;
58685;SDS011;44465;53.206;-6.106;2023-03-21T07:08:53;2.25;;;0.52;;
58685;SDS011;44465;53.206;-6.106;2023-03-21T07:13:48;1.23;;;0.93;;
58685;SDS011;44465;53.206;-6.106;2023-03-21T07:16:14;3.42;;;0.98;;
58685;SDS011;44465;53.206;-6.106;2023-03-21T07:18:41;2.20;;;0.70;;
58685;SDS011;44465;53.206;-6.106;2023-03-21T07:21:07;3.10;;;0.70;;
58685;SDS011;44465;53.206;-6.106;2023-03-21T07:23:33;7.63;;;1.08;;
58685;SDS011;44465;53.206;-6.106;2023-03-21T07:25:59;3.22;;;0.75;;
58685;SDS011;44465;53.206;-6.106;2023-03-21T07:28:26;1.75;;;0.63;;
58685;SDS011;44465;53.206;-6.106;2023-03-21T07:30:56;3.63;;;0.70;;
58685;SDS011;44465;53.206;-6.106;2023-03-21T07:33:42;2.55;;;0.77;;
58685;SDS011;44465;53.206;-6.106;2023-03-21T07:36:09;2.08;;;0.80;;
58685;SDS011;44465;53.206;-6.106;2023-03-21T07:38:40;2.55;;;0.60;;
58685;SDS011;44465;53.206;-6.106;2023-03-21T07:41:06;0.52;;;0.40;;
58685;SDS011;44465;53.206;-6.106;2023-03-21T07:43:33;3.17;;;0.50;;
58685;SDS011;44465;53.206;-6.106;2023-03-21T07:46:02;3.55;;;0.63;;
58685;SDS011;44465;53.206;-6.106;2023-03-21T07:48:28;1.23;;;0.63;;
58685;SDS011;44465;53.206;-6.106;2023-03-21T07:50:54;1.15;;;0.50;;
58685;SDS011;44465;53.206;-6.106;2023-03-21T07:53:20;5.22;;;0.65;;
58685;SDS011;44465;53.206;-6.106;2023-03-21T07:55:51;2.17;;;0.50;;
58685;SDS011;44465;53.206;-6.106;2023-03-21T07:58:19;1.65;;;0.50;;
58685;SDS011;44465;53.206;-6.106;2023-03-21T08:00:45;5.05;;;0.73;;
58685;SDS011;44465;53.206;-6.106;2023-03-21T08:03:11;1.23;;;0.50;;
58685;SDS011;44465;53.206;-6.106;2023-03-21T08:05:37;1.88;;;0.70;;
58685;SDS011;44465;53.206;-6.106;2023-03-21T08:08:03;1.02;;;0.50;;
58685;SDS011;44465;53.206;-6.106;2023-03-21T08:10:30;1.35;;;0.35;;
58685;SDS011;44465;53.206;-6.106;2023-03-21T08:12:55;1.42;;;0.50;;
58685;SDS011;44465;53.206;-6.106;2023-03-21T08:15:21;1.10;;;0.35;;
58685;SDS011;44465;53.206;-6.106;2023-03-21T08:17:47;2.58;;;0.68;;
58685;SDS011;44465;53.206;-6.106;2023-03-21T08:20:14;1.42;;;0.65;;
58685;SDS011;44465;53.206;-6.106;2023-03-21T08:22:46;0.52;;;0.32;;
58685;SDS011;44465;53.206;-6.106;2023-03-21T08:25:12;2.10;;;0.40;;
58685;SDS011;44465;53.206;-6.106;2023-03-21T08:27:40;1.90;;;0.30;;
58685;SDS011;44465;53.206;-6.106;2023-03-21T08:32:35;1.50;;;0.30;;
58685;SDS011;44465;53.206;-6.106;2023-03-21T08:37:29;1.48;;;0.65;;
58685;SDS011;44465;53.206;-6.106;2023-03-21T08:39:55;2.15;;;0.65;;
58685;SDS011;44465;53.206;-6.106;2023-03-21T08:42:20;0.60;;;0.40;;
58685;SDS011;44465;53.206;-6.106;2023-03-21T08:44:47;0.47;;;0.40;;
58685;SDS011;44465;53.206;-6.106;2023-03-21T08:47:13;0.30;;;0.30;;
58685;SDS011;44465;53.206;-6.106;2023-03-21T08:49:40;1.70;;;0.40;;
58685;SDS011;44465;53.206;-6.106;2023-03-21T08:52:07;2.75;;;0.47;;
58685;SDS011;44465;53.206;-6.106;2023-03-21T08:54:33;3.17;;;0.50;;
58685;SDS011;44465;53.206;-6.106;2023-03-21T08:56:59;0.75;;;0.40;;
58685;SDS011;44465;53.206;-6.106;2023-03-21T08:59:24;2.08;;;0.80;;
58685;SDS011;44465;53.206;-6.106;2023-03-21T09:01:50;0.30;;;0.30;;
58685;SDS011;44465;53.206;-6.106;2023-03-21T09:04:15;0.32;;;0.20;;
58685;SDS011;44465;53.206;-6.106;2023-03-21T09:06:46;1.98;;;0.30;;
58685;SDS011;44465;53.206;-6.106;2023-03-21T09:09:13;2.40;;;0.50;;
58685;SDS011;44465;53.206;-6.106;2023-03-21T09:11:40;3.65;;;0.50;;
58685;SDS011;44465;53.206;-6.106;2023-03-21T09:14:06;4.20;;;0.52;;
58685;SDS011;44465;53.206;-6.106;2023-03-21T09:16:33;3.20;;;0.43;;
58685;SDS011;44465;53.206;-6.106;2023-03-21T09:18:59;2.88;;;0.65;;
58685;SDS011;44465;53.206;-6.106;2023-03-21T09:21:30;1.52;;;0.70;;
58685;SDS011;44465;53.206;-6.106;2023-03-21T09:23:56;3.05;;;0.90;;
58685;SDS011;44465;53.206;-6.106;2023-03-21T09:26:23;11.48;;;1.30;;
58685;SDS011;44465;53.206;-6.106;2023-03-21T09:28:52;2.83;;;0.60;;
58685;SDS011;44465;53.206;-6.106;2023-03-21T09:31:18;5.25;;;1.42;;
58685;SDS011;44465;53.206;-6.106;2023-03-21T09:33:50;7.00;;;1.20;;
58685;SDS011;44465;53.206;-6.106;2023-03-21T09:36:20;1.70;;;0.68;;
58685;SDS011;44465;53.206;-6.106;2023-03-21T09:38:49;4.45;;;0.93;;
58685;SDS011;44465;53.206;-6.106;2023-03-21T09:47:09;7.68;;;1.10;;
58685;SDS011;44465;53.206;-6.106;2023-03-21T09:49:42;4.85;;;0.98;;
58685;SDS011;44465;53.206;-6.106;2023-03-21T09:52:38;3.47;;;1.00;;
58685;SDS011;44465;53.206;-6.106;2023-03-21T09:55:30;4.72;;;0.98;;
58685;SDS011;44465;53.206;-6.106;2023-03-21T09:58:07;3.58;;;0.60;;
58685;SDS011;44465;53.206;-6.106;2023-03-21T10:00:48;2.35;;;0.80;;
58685;SDS011;44465;53.206;-6.106;2023-03-21T10:08:19;2.28;;;0.65;;
58685;SDS011;44465;53.206;-6.106;2023-03-21T10:10:56;2.15;;;0.73;;
58685;SDS011;44465;53.206;-6.106;2023-03-21T10:13:53;2.13;;;0.50;;
58685;SDS011;44465;53.206;-6.106;2023-03-21T10:16:31;3.50;;;0.70;;
58685;SDS011;44465;53.206;-6.106;2023-03-21T10:19:02;2.55;;;0.50;;
58685;SDS011;44465;53.206;-6.106;2023-03-21T10:21:34;1.40;;;0.80;;
58685;SDS011;44465;53.206;-6.106;2023-03-21T10:24:09;2.80;;;0.60;;
58685;SDS011;44465;53.206;-6.106;2023-03-21T10:26:47;0.45;;;0.40;;
58685;SDS011;44465;53.206;-6.106;2023-03-21T10:29:15;4.28;;;1.13;;
58685;SDS011;44465;53.206;-6.106;2023-03-21T10:34:17;1.67;;;0.57;;
58685;SDS011;44465;53.206;-6.106;2023-03-21T10:36:44;8.48;;;0.90;;
58685;SDS011;44465;53.206;-6.106;2023-03-21T10:41:49;12.95;;;1.60;;
58685;SDS011;44465;53.206;-6.106;2023-03-21T10:44:16;9.45;;;1.00;;
58685;SDS011;44465;53.206;-6.106;2023-03-21T10:46:53;6.72;;;0.90;;
58685;SDS011;44465;53.206;-6.106;2023-03-21T10:49:29;5.82;;;1.38;;
58685;SDS011;44465;53.206;-6.106;2023-03-21T10:51:56;8.15;;;1.20;;
58685;SDS011;44465;53.206;-6.106;2023-03-21T10:54:27;13.30;;;1.85;;
58685;SDS011;44465;53.206;-6.106;2023-03-21T10:57:07;10.35;;;2.22;;
58685;SDS011;44465;53.206;-6.106;2023-03-21T10:59:43;5.57;;;1.15;;
58685;SDS011;44465;53.206;-6.106;2023-03-21T11:02:34;10.93;;;1.20;;
58685;SDS011;44465;53.206;-6.106;2023-03-21T11:08:11;6.22;;;1.38;;
58685;SDS011;44465;53.206;-6.106;2023-03-21T11:11:18;6.18;;;1.75;;
58685;SDS011;44465;53.206;-6.106;2023-03-21T11:13:54;8.65;;;1.45;;
58685;SDS011;44465;53.206;-6.106;2023-03-21T11:16:29;5.30;;;1.20;;
58685;SDS011;44465;53.206;-6.106;2023-03-21T11:19:01;12.32;;;1.67;;
58685;SDS011;44465;53.206;-6.106;2023-03-21T11:21:37;9.77;;;1.30;;
58685;SDS011;44465;53.206;-6.106;2023-03-21T11:24:03;8.83;;;1.60;;
58685;SDS011;44465;53.206;-6.106;2023-03-21T11:26:34;8.23;;;1.90;;
58685;SDS011;44465;53.206;-6.106;2023-03-21T11:29:15;15.45;;;1.98;;
58685;SDS011;44465;53.206;-6.106;2023-03-21T11:31:49;13.38;;;2.10;;
58685;SDS011;44465;53.206;-6.106;2023-03-21T11:34:33;12.02;;;1.63;;
58685;SDS011;44465;53.206;-6.106;2023-03-21T11:37:15;13.90;;;1.92;;
58685;SDS011;44465;53.206;-6.106;2023-03-21T11:39:43;13.18;;;2.67;;
58685;SDS011;44465;53.206;-6.106;2023-03-21T11:42:29;16.90;;;1.92;;
58685;SDS011;44465;53.206;-6.106;2023-03-21T11:44:59;15.13;;;2.40;;
58685;SDS011;44465;53.206;-6.106;2023-03-21T11:47:49;18.20;;;1.92;;
58685;SDS011;44465;53.206;-6.106;2023-03-21T11:50:18;21.42;;;2.50;;
58685;SDS011;44465;53.206;-6.106;2023-03-21T12:00:51;10.45;;;1.98;;
58685;SDS011;44465;53.206;-6.106;2023-03-21T12:09:12;33.92;;;4.28;;
58685;SDS011;44465;53.206;-6.106;2023-03-21T12:17:46;31.05;;;4.47;;
58685;SDS011;44465;53.206;-6.106;2023-03-21T12:20:28;35.15;;;4.75;;
58685;SDS011;44465;53.206;-6.106;2023-03-21T12:23:05;40.90;;;4.82;;
58685;SDS011;44465;53.206;-6.106;2023-03-21T12:25:45;40.72;;;6.03;;
58685;SDS011;44465;53.206;-6.106;2023-03-21T12:36:37;49.95;;;5.03;;
58685;SDS011;44465;53.206;-6.106;2023-03-21T12:39:26;50.40;;;7.00;;
58685;SDS011;44465;53.206;-6.106;2023-03-21T12:42:08;40.65;;;5.38;;
58685;SDS011;44465;53.206;-6.106;2023-03-21T12:44:55;35.92;;;4.80;;
58685;SDS011;44465;53.206;-6.106;2023-03-21T12:47:28;38.15;;;6.47;;
58685;SDS011;44465;53.206;-6.106;2023-03-21T12:49:59;41.38;;;6.47;;
58685;SDS011;44465;53.206;-6.106;2023-03-21T12:52:34;36.88;;;4.93;;
58685;SDS011;44465;53.206;-6.106;2023-03-21T12:57:31;34.75;;;4.65;;
58685;SDS011;44465;53.206;-6.106;2023-03-21T13:03:03;31.98;;;4.72;;
58685;SDS011;44465;53.206;-6.106;2023-03-21T13:05:38;27.33;;;4.80;;
58685;SDS011;44465;53.206;-6.106;2023-03-21T13:10:57;31.58;;;5.35;;
58685;SDS011;44465;53.206;-6.106;2023-03-21T13:16:36;26.58;;;4.55;;
58685;SDS011;44465;53.206;-6.106;2023-03-21T13:19:10;31.38;;;5.72;;
58685;SDS011;44465;53.206;-6.106;2023-03-21T13:21:45;37.53;;;5.00;;
58685;SDS011;44465;53.206;-6.106;2023-03-21T13:24:18;27.48;;;4.65;;
58685;SDS011;44465;53.206;-6.106;2023-03-21T13:26:57;29.73;;;4.57;;
58685;SDS011;44465;53.206;-6.106;2023-03-21T13:29:30;24.90;;;4.35;;
58685;SDS011;44465;53.206;-6.106;2023-03-21T13:32:04;22.83;;;3.92;;
58685;SDS011;44465;53.206;-6.106;2023-03-21T13:34:33;51.35;;;8.23;;
58685;SDS011;44465;53.206;-6.106;2023-03-21T13:36:58;69.45;;;10.15;;
58685;SDS011;44465;53.206;-6.106;2023-03-21T13:39:26;41.78;;;6.45;;
58685;SDS011;44465;53.206;-6.106;2023-03-21T13:41:53;45.13;;;8.15;;
58685;SDS011;44465;53.206;-6.106;2023-03-21T13:47:05;61.28;;;8.43;;
58685;SDS011;44465;53.206;-6.106;2023-03-21T13:55:42;48.05;;;8.25;;
58685;SDS011;44465;53.206;-6.106;2023-03-21T14:04:08;55.92;;;7.40;;
58685;SDS011;44465;53.206;-6.106;2023-03-21T14:09:05;32.38;;;5.40;;
58685;SDS011;44465;53.206;-6.106;2023-03-21T14:11:31;31.00;;;5.35;;
58685;SDS011;44465;53.206;-6.106;2023-03-21T14:13:59;62.58;;;9.25;;
58685;SDS011;44465;53.206;-6.106;2023-03-21T14:16:26;30.00;;;5.07;;
58685;SDS011;44465;53.206;-6.106;2023-03-21T14:18:54;38.50;;;6.17;;
58685;SDS011;44465;53.206;-6.106;2023-03-21T14:21:25;32.30;;;4.68;;
58685;SDS011;44465;53.206;-6.106;2023-03-21T14:24:00;34.95;;;5.53;;
58685;SDS011;44465;53.206;-6.106;2023-03-21T14:26:26;34.38;;;4.38;;
58685;SDS011;44465;53.206;-6.106;2023-03-21T14:28:55;29.77;;;5.13;;
58685;SDS011;44465;53.206;-6.106;2023-03-21T14:31:22;28.85;;;5.53;;
58685;SDS011;44465;53.206;-6.106;2023-03-21T14:33:51;44.45;;;7.53;;
58685;SDS011;44465;53.206;-6.106;2023-03-21T14:36:25;29.33;;;4.60;;
58685;SDS011;44465;53.206;-6.106;2023-03-21T14:38:54;27.15;;;4.03;;
58685;SDS011;44465;53.206;-6.106;2023-03-21T14:41:28;33.72;;;6.18;;
58685;SDS011;44465;53.206;-6.106;2023-03-21T14:46:36;21.25;;;4.45;;
58685;SDS011;44465;53.206;-6.106;2023-03-21T14:49:16;24.70;;;4.28;;
58685;SDS011;44465;53.206;-6.106;2023-03-21T14:51:45;31.92;;;4.35;;
58685;SDS011;44465;53.206;-6.106;2023-03-21T14:54:13;28.02;;;4.65;;
58685;SDS011;44465;53.206;-6.106;2023-03-21T14:56:43;28.10;;;4.85;;
58685;SDS011;44465;53.206;-6.106;2023-03-21T14:59:13;26.98;;;3.72;;
58685;SDS011;44465;53.206;-6.106;2023-03-21T15:01:41;30.33;;;4.28;;
58685;SDS011;44465;53.206;-6.106;2023-03-21T15:04:10;21.33;;;5.40;;
58685;SDS011;44465;53.206;-6.106;2023-03-21T15:06:49;20.45;;;3.83;;
58685;SDS011;44465;53.206;-6.106;2023-03-21T15:09:20;20.10;;;4.05;;
58685;SDS011;44465;53.206;-6.106;2023-03-21T15:11:49;24.75;;;4.43;;
58685;SDS011;44465;53.206;-6.106;2023-03-21T15:14:25;30.27;;;5.40;;
58685;SDS011;44465;53.206;-6.106;2023-03-21T15:16:54;26.27;;;4.10;;
58685;SDS011;44465;53.206;-6.106;2023-03-21T15:19:22;28.85;;;4.18;;
58685;SDS011;44465;53.206;-6.106;2023-03-21T15:21:55;19.95;;;4.38;;
58685;SDS011;44465;53.206;-6.106;2023-03-21T15:24:26;19.27;;;3.72;;
58685;SDS011;44465;53.206;-6.106;2023-03-21T15:26:56;23.27;;;4.13;;
58685;SDS011;44465;53.206;-6.106;2023-03-21T15:29:26;24.10;;;3.80;;
58685;SDS011;44465;53.206;-6.106;2023-03-21T15:31:53;25.00;;;3.80;;
58685;SDS011;44465;53.206;-6.106;2023-03-21T15:34:26;17.40;;;3.17;;
58685;SDS011;44465;53.206;-6.106;2023-03-21T15:36:57;24.88;;;4.30;;
58685;SDS011;44465;53.206;-6.106;2023-03-21T15:39:29;18.02;;;3.47;;
58685;SDS011;44465;53.206;-6.106;2023-03-21T15:42:00;26.65;;;4.78;;
58685;SDS011;44465;53.206;-6.106;2023-03-21T15:44:26;15.93;;;3.90;;
58685;SDS011;44465;53.206;-6.106;2023-03-21T15:46:52;15.00;;;4.13;;
58685;SDS011;44465;53.206;-6.106;2023-03-21T15:51:59;16.33;;;4.20;;
58685;SDS011;44465;53.206;-6.106;2023-03-21T15:54:32;25.45;;;4.75;;
58685;SDS011;44465;53.206;-6.106;2023-03-21T15:57:02;24.77;;;4.03;;
58685;SDS011;44465;53.206;-6.106;2023-03-21T15:59:39;33.38;;;4.38;;
58685;SDS011;44465;53.206;-6.106;2023-03-21T16:02:16;31.88;;;4.57;;
58685;SDS011;44465;53.206;-6.106;2023-03-21T16:04:54;25.25;;;3.88;;
58685;SDS011;44465;53.206;-6.106;2023-03-21T16:07:23;29.83;;;4.32;;
58685;SDS011;44465;53.206;-6.106;2023-03-21T16:09:49;32.97;;;5.20;;
58685;SDS011;44465;53.206;-6.106;2023-03-21T16:12:21;31.17;;;5.82;;
58685;SDS011;44465;53.206;-6.106;2023-03-21T16:14:48;27.67;;;4.38;;
58685;SDS011;44465;53.206;-6.106;2023-03-21T16:17:25;29.13;;;4.32;;
58685;SDS011;44465;53.206;-6.106;2023-03-21T16:19:57;47.17;;;5.45;;
58685;SDS011;44465;53.206;-6.106;2023-03-21T16:22:24;36.85;;;6.72;;
58685;SDS011;44465;53.206;-6.106;2023-03-21T16:24:51;59.43;;;8.73;;
58685;SDS011;44465;53.206;-6.106;2023-03-21T16:27:17;45.53;;;7.25;;
58685;SDS011;44465;53.206;-6.106;2023-03-21T16:29:44;64.60;;;7.72;;
58685;SDS011;44465;53.206;-6.106;2023-03-21T16:32:14;38.30;;;5.55;;
58685;SDS011;44465;53.206;-6.106;2023-03-21T16:34:45;42.13;;;6.18;;
58685;SDS011;44465;53.206;-6.106;2023-03-21T16:37:11;42.90;;;5.95;;
58685;SDS011;44465;53.206;-6.106;2023-03-21T16:39:39;31.30;;;5.22;;
58685;SDS011;44465;53.206;-6.106;2023-03-21T16:42:05;44.15;;;5.97;;
58685;SDS011;44465;53.206;-6.106;2023-03-21T16:44:31;32.10;;;3.95;;
58685;SDS011;44465;53.206;-6.106;2023-03-21T16:46:58;33.33;;;5.32;;
58685;SDS011;44465;53.206;-6.106;2023-03-21T16:49:24;32.92;;;5.05;;
58685;SDS011;44465;53.206;-6.106;2023-03-21T16:51:52;27.88;;;4.75;;
58685;SDS011;44465;53.206;-6.106;2023-03-21T16:56:50;25.75;;;4.28;;
58685;SDS011;44465;53.206;-6.106;2023-03-21T16:59:20;21.27;;;4.32;;